createdAt,value
2019-05-19T00:00:43.434Z,14.19
2019-05-19T00:01:43.400Z,14.25
2019-05-19T00:02:43.390Z,14.17
2019-05-19T00:03:43.374Z,14.13
2019-05-19T00:04:43.365Z,14.13
2019-05-19T00:05:43.352Z,14.07
2019-05-19T00:06:43.358Z,14.01
2019-05-19T00:07:43.335Z,14.07
2019-05-19T00:08:43.318Z,14.04
2019-05-19T00:09:43.305Z,14.10
2019-05-19T00:10:43.318Z,13.92
2019-05-19T00:11:43.304Z,13.96
2019-05-19T00:12:43.271Z,13.92
2019-05-19T00:13:43.259Z,13.96
2019-05-19T00:14:43.250Z,13.92
2019-05-19T00:15:43.237Z,13.91
2019-05-19T00:16:43.252Z,13.88
2019-05-19T00:17:43.242Z,13.79
2019-05-19T00:18:43.202Z,13.89
2019-05-19T00:19:43.192Z,13.81
2019-05-19T00:20:43.180Z,13.77
2019-05-19T00:21:43.167Z,13.76
2019-05-19T00:22:43.177Z,13.67
2019-05-19T00:23:43.144Z,13.80
2019-05-19T00:24:43.132Z,13.73
2019-05-19T00:25:43.123Z,13.70
2019-05-19T00:26:43.110Z,13.71
2019-05-19T00:27:43.102Z,13.76
2019-05-19T00:28:43.108Z,13.65
2019-05-19T00:29:43.075Z,13.61
2019-05-19T00:30:43.066Z,13.59
2019-05-19T00:31:43.055Z,13.59
2019-05-19T00:32:43.043Z,13.55
2019-05-19T00:33:43.050Z,13.69
2019-05-19T00:34:43.019Z,13.65
2019-05-19T00:35:43.007Z,13.62
2019-05-19T00:36:42.996Z,13.54
2019-05-19T00:37:42.986Z,13.59
2019-05-19T00:38:42.991Z,13.54
2019-05-19T00:39:42.959Z,13.54
2019-05-19T00:40:42.949Z,13.56
2019-05-19T00:41:42.941Z,13.47
2019-05-19T00:42:42.928Z,13.56
2019-05-19T00:43:42.940Z,13.55
2019-05-19T00:44:42.903Z,13.61
2019-05-19T00:45:42.892Z,13.59
2019-05-19T00:46:42.881Z,13.52
2019-05-19T00:47:42.872Z,13.44
2019-05-19T00:48:42.859Z,13.43
2019-05-19T00:49:42.878Z,13.38
2019-05-19T00:50:42.835Z,13.43
2019-05-19T00:51:42.824Z,13.47
2019-05-19T00:52:42.814Z,13.37
2019-05-19T00:53:42.802Z,13.38
2019-05-19T00:54:42.792Z,13.38
2019-05-19T00:55:42.797Z,13.49
2019-05-19T00:56:42.768Z,13.46
2019-05-19T00:57:42.757Z,13.43
2019-05-19T00:58:42.744Z,13.52
2019-05-19T00:59:42.735Z,13.40
2019-05-19T01:00:42.740Z,13.44
2019-05-19T01:01:42.710Z,13.47
2019-05-19T01:02:42.701Z,13.38
2019-05-19T01:03:42.688Z,13.30
2019-05-19T01:04:42.676Z,13.44
2019-05-19T01:05:42.684Z,13.36
2019-05-19T01:06:42.652Z,13.36
2019-05-19T01:07:42.642Z,13.37
2019-05-19T01:08:42.630Z,13.41
2019-05-19T01:09:42.620Z,13.36
2019-05-19T01:10:42.628Z,13.36
2019-05-19T01:11:42.596Z,13.47
2019-05-19T01:12:42.584Z,13.41
2019-05-19T01:13:42.574Z,13.41
2019-05-19T01:14:42.561Z,13.36
2019-05-19T01:15:42.569Z,13.30
2019-05-19T01:16:42.540Z,13.33
2019-05-19T01:17:42.529Z,13.33
2019-05-19T01:18:42.516Z,13.37
2019-05-19T01:19:55.222Z,13.32
2019-05-19T01:20:43.533Z,13.25
2019-05-19T01:21:42.484Z,13.24
2019-05-19T01:22:42.466Z,13.14
2019-05-19T01:23:42.456Z,13.15
2019-05-19T01:24:42.443Z,13.25
2019-05-19T01:25:42.434Z,13.14
2019-05-19T01:26:42.444Z,13.09
2019-05-19T01:27:42.407Z,13.11
2019-05-19T01:28:42.398Z,13.00
2019-05-19T01:29:42.386Z,12.99
2019-05-19T01:30:42.376Z,13.00
2019-05-19T01:31:42.364Z,13.02
2019-05-19T01:32:42.371Z,13.03
2019-05-19T01:33:42.341Z,13.03
2019-05-19T01:34:42.326Z,13.00
2019-05-19T01:35:42.317Z,12.99
2019-05-19T01:36:42.303Z,12.96
2019-05-19T01:37:42.322Z,12.92
2019-05-19T01:38:42.282Z,13.03
2019-05-19T01:39:42.271Z,12.93
2019-05-19T01:40:42.258Z,12.92
2019-05-19T01:41:42.253Z,13.00
2019-05-19T01:42:42.243Z,12.92
2019-05-19T01:43:42.245Z,12.79
2019-05-19T01:44:42.213Z,12.87
2019-05-19T01:45:42.202Z,12.82
2019-05-19T01:46:42.187Z,12.84
2019-05-19T01:47:42.177Z,12.78
2019-05-19T01:48:42.189Z,12.78
2019-05-19T01:49:42.154Z,12.75
2019-05-19T01:50:42.144Z,12.77
2019-05-19T01:51:42.130Z,12.60
2019-05-19T01:52:42.118Z,12.69
2019-05-19T01:53:42.108Z,12.78
2019-05-19T01:54:42.113Z,12.69
2019-05-19T01:55:42.086Z,12.77
2019-05-19T01:56:42.082Z,12.66
2019-05-19T01:57:42.060Z,12.66
2019-05-19T01:58:42.055Z,12.70
2019-05-19T01:59:42.061Z,12.63
2019-05-19T02:00:42.025Z,12.75
2019-05-19T02:01:42.018Z,12.69
2019-05-19T02:02:42.002Z,12.75
2019-05-19T02:03:41.994Z,12.63
2019-05-19T02:04:41.980Z,12.66
2019-05-19T02:05:41.986Z,12.64
2019-05-19T02:06:41.954Z,12.74
2019-05-19T02:07:41.962Z,12.69
2019-05-19T02:08:41.933Z,12.71
2019-05-19T02:09:41.920Z,12.71
2019-05-19T02:10:41.925Z,12.70
2019-05-19T02:11:41.935Z,12.74
2019-05-19T02:12:41.883Z,12.66
2019-05-19T02:13:41.875Z,12.57
2019-05-19T02:14:41.862Z,12.59
2019-05-19T02:15:41.868Z,12.71
2019-05-19T02:16:41.836Z,12.78
2019-05-19T02:17:41.827Z,12.59
2019-05-19T02:18:41.812Z,12.66
2019-05-19T02:19:41.807Z,12.63
2019-05-19T02:20:41.811Z,12.64
2019-05-19T02:21:41.779Z,12.59
2019-05-19T02:22:41.769Z,12.57
2019-05-19T02:23:41.753Z,12.60
2019-05-19T02:24:41.742Z,12.57
2019-05-19T02:25:41.727Z,12.52
2019-05-19T02:26:41.736Z,12.51
2019-05-19T02:27:41.707Z,12.64
2019-05-19T02:28:41.696Z,12.49
2019-05-19T02:29:41.679Z,12.63
2019-05-19T02:30:41.671Z,12.49
2019-05-19T02:31:41.678Z,12.54
2019-05-19T02:32:41.648Z,12.48
2019-05-19T02:33:41.632Z,12.56
2019-05-19T02:34:41.624Z,12.54
2019-05-19T02:35:41.608Z,12.59
2019-05-19T02:36:41.620Z,12.54
2019-05-19T02:37:41.590Z,12.54
2019-05-19T02:38:41.574Z,12.62
2019-05-19T02:39:41.566Z,12.57
2019-05-19T02:40:41.549Z,12.49
2019-05-19T02:41:41.540Z,12.57
2019-05-19T02:42:41.550Z,12.57
2019-05-19T02:43:41.516Z,12.56
2019-05-19T02:44:41.533Z,12.54
2019-05-19T02:45:41.501Z,12.48
2019-05-19T02:46:41.480Z,12.54
2019-05-19T02:47:41.489Z,12.51
2019-05-19T02:48:41.471Z,12.46
2019-05-19T02:49:41.447Z,12.54
2019-05-19T02:50:51.789Z,12.48
2019-05-19T02:51:42.421Z,12.45
2019-05-19T02:52:41.427Z,12.52
2019-05-19T02:53:41.399Z,12.54
2019-05-19T02:54:41.389Z,12.41
2019-05-19T02:55:41.374Z,12.48
2019-05-19T02:56:41.367Z,12.49
2019-05-19T02:57:41.372Z,12.49
2019-05-19T02:58:41.355Z,12.56
2019-05-19T02:59:41.332Z,12.48
2019-05-19T03:00:41.326Z,12.52
2019-05-19T03:01:41.303Z,12.48
2019-05-19T03:02:41.292Z,12.37
2019-05-19T03:03:41.297Z,12.42
2019-05-19T03:04:41.271Z,12.54
2019-05-19T03:05:41.258Z,12.37
2019-05-19T03:06:41.245Z,12.56
2019-05-19T03:07:41.231Z,12.41
2019-05-19T03:08:41.244Z,12.41
2019-05-19T03:09:41.215Z,12.30
2019-05-19T03:10:41.195Z,12.42
2019-05-19T03:11:41.183Z,12.41
2019-05-19T03:12:41.170Z,12.38
2019-05-19T03:13:41.182Z,12.39
2019-05-19T03:14:41.146Z,12.30
2019-05-19T03:15:41.137Z,12.38
2019-05-19T03:16:41.128Z,12.33
2019-05-19T03:17:41.110Z,12.41
2019-05-19T03:18:41.101Z,12.30
2019-05-19T03:19:41.116Z,12.33
2019-05-19T03:20:41.076Z,12.24
2019-05-19T03:21:41.071Z,12.29
2019-05-19T03:22:41.052Z,12.23
2019-05-19T03:23:41.040Z,12.27
2019-05-19T03:24:41.052Z,12.24
2019-05-19T03:25:44.068Z,12.38
2019-05-19T03:26:41.024Z,12.16
2019-05-19T03:27:40.994Z,12.23
2019-05-19T03:28:40.979Z,12.15
2019-05-19T03:29:40.968Z,12.09
2019-05-19T03:30:40.972Z,12.08
2019-05-19T03:31:40.950Z,12.26
2019-05-19T03:32:40.932Z,12.20
2019-05-19T03:33:40.922Z,12.13
2019-05-19T03:34:40.911Z,12.13
2019-05-19T03:35:40.925Z,12.15
2019-05-19T03:36:40.885Z,12.09
2019-05-19T03:37:40.873Z,12.13
2019-05-19T03:38:40.861Z,12.02
2019-05-19T03:39:40.858Z,12.12
2019-05-19T03:40:40.837Z,12.01
2019-05-19T03:41:40.847Z,12.09
2019-05-19T03:42:40.814Z,11.99
2019-05-19T03:43:40.799Z,11.99
2019-05-19T03:44:40.810Z,12.02
2019-05-19T03:45:40.777Z,12.08
2019-05-19T03:46:40.791Z,11.99
2019-05-19T03:47:40.758Z,12.02
2019-05-19T03:48:40.742Z,12.08
2019-05-19T03:49:40.733Z,12.05
2019-05-19T03:50:40.733Z,12.01
2019-05-19T03:51:40.727Z,12.04
2019-05-19T03:52:40.696Z,11.89
2019-05-19T03:53:40.685Z,12.02
2019-05-19T03:54:40.748Z,11.89
2019-05-19T03:55:40.662Z,11.99
2019-05-19T03:56:40.668Z,12.01
2019-05-19T03:57:40.637Z,11.96
2019-05-19T03:58:40.706Z,11.89
2019-05-19T03:59:40.625Z,12.02
2019-05-19T04:00:40.601Z,11.99
2019-05-19T04:01:40.608Z,11.86
2019-05-19T04:02:40.576Z,11.90
2019-05-19T04:03:40.570Z,11.94
2019-05-19T04:04:40.555Z,11.97
2019-05-19T04:05:40.564Z,11.89
2019-05-19T04:06:40.535Z,11.96
2019-05-19T04:07:40.537Z,11.87
2019-05-19T04:08:40.508Z,11.97
2019-05-19T04:09:40.494Z,11.99
2019-05-19T04:10:40.489Z,11.87
2019-05-19T04:11:40.471Z,11.97
2019-05-19T04:12:40.484Z,11.97
2019-05-19T04:13:40.450Z,11.87
2019-05-19T04:14:40.437Z,11.94
2019-05-19T04:15:40.447Z,12.04
2019-05-19T04:16:40.413Z,12.02
2019-05-19T04:17:40.403Z,11.99
2019-05-19T04:18:40.408Z,12.13
2019-05-19T04:19:40.379Z,11.99
2019-05-19T04:20:40.365Z,12.02
2019-05-19T04:21:48.644Z,12.05
2019-05-19T04:22:41.342Z,12.06
2019-05-19T04:23:40.349Z,11.93
2019-05-19T04:24:40.319Z,12.05
2019-05-19T04:25:40.306Z,12.08
2019-05-19T04:26:40.294Z,12.05
2019-05-19T04:27:40.282Z,12.05
2019-05-19T04:28:40.291Z,11.94
2019-05-19T04:29:40.261Z,12.12
2019-05-19T04:30:40.247Z,12.13
2019-05-19T04:31:40.236Z,12.09
2019-05-19T04:32:40.223Z,12.09
2019-05-19T04:33:40.230Z,12.05
2019-05-19T04:34:40.199Z,12.12
2019-05-19T04:35:40.198Z,12.11
2019-05-19T04:36:40.184Z,12.11
2019-05-19T04:37:40.183Z,12.16
2019-05-19T04:38:40.180Z,12.11
2019-05-19T04:39:40.153Z,12.13
2019-05-19T04:40:40.144Z,12.23
2019-05-19T04:41:40.456Z,12.26
2019-05-19T04:42:40.103Z,12.26
2019-05-19T04:43:40.092Z,12.30
2019-05-19T04:44:40.102Z,12.29
2019-05-19T04:45:40.076Z,12.34
2019-05-19T04:46:40.057Z,12.44
2019-05-19T04:47:40.043Z,12.48
2019-05-19T04:48:40.031Z,12.42
2019-05-19T04:49:40.040Z,12.45
2019-05-19T04:50:40.007Z,12.48
2019-05-19T04:51:40.002Z,12.52
2019-05-19T04:52:39.986Z,12.62
2019-05-19T04:53:39.975Z,12.59
2019-05-19T04:54:39.963Z,12.59
2019-05-19T04:55:39.971Z,12.69
2019-05-19T04:56:39.946Z,12.69
2019-05-19T04:57:39.931Z,12.78
2019-05-19T04:58:39.916Z,12.78
2019-05-19T04:59:39.903Z,12.78
2019-05-19T05:00:39.913Z,12.92
2019-05-19T05:01:39.882Z,12.84
2019-05-19T05:02:39.873Z,12.92
2019-05-19T05:03:39.859Z,12.97
2019-05-19T05:04:39.847Z,12.96
2019-05-19T05:05:39.869Z,13.09
2019-05-19T05:06:39.824Z,13.11
2019-05-19T05:07:39.827Z,13.09
2019-05-19T05:08:39.801Z,13.06
2019-05-19T05:09:39.788Z,13.09
2019-05-19T05:10:39.797Z,13.14
2019-05-19T05:11:39.765Z,13.14
2019-05-19T05:12:39.754Z,13.27
2019-05-19T05:13:39.743Z,13.44
2019-05-19T05:14:39.731Z,13.40
2019-05-19T05:15:39.738Z,13.36
2019-05-19T05:16:39.708Z,13.37
2019-05-19T05:17:39.698Z,13.40
2019-05-19T05:18:39.685Z,13.43
2019-05-19T05:19:39.676Z,13.52
2019-05-19T05:20:39.685Z,13.43
2019-05-19T05:21:39.677Z,13.41
2019-05-19T05:22:39.639Z,13.52
2019-05-19T05:23:39.632Z,13.43
2019-05-19T05:24:39.618Z,13.49
2019-05-19T05:25:39.626Z,13.55
2019-05-19T05:26:39.596Z,13.58
2019-05-19T05:27:39.582Z,13.58
2019-05-19T05:28:39.574Z,13.49
2019-05-19T05:29:39.560Z,13.51
2019-05-19T05:30:39.588Z,13.54
2019-05-19T05:31:39.534Z,13.59
2019-05-19T05:32:39.523Z,13.69
2019-05-19T05:33:39.513Z,13.73
2019-05-19T05:34:39.503Z,13.65
2019-05-19T05:35:39.510Z,13.70
2019-05-19T05:36:39.499Z,13.74
2019-05-19T05:37:39.466Z,13.88
2019-05-19T05:38:39.457Z,13.87
2019-05-19T05:39:39.442Z,13.88
2019-05-19T05:40:39.433Z,13.95
2019-05-19T05:41:39.440Z,13.98
2019-05-19T05:42:39.412Z,14.06
2019-05-19T05:43:39.398Z,13.99
2019-05-19T05:44:39.386Z,13.99
2019-05-19T05:45:39.374Z,14.02
2019-05-19T05:46:39.383Z,14.12
2019-05-19T05:47:39.361Z,14.14
2019-05-19T05:48:39.343Z,14.13
2019-05-19T05:49:39.355Z,14.19
2019-05-19T05:50:39.316Z,14.14
2019-05-19T05:51:39.307Z,14.25
2019-05-19T05:52:39.356Z,14.25
2019-05-19T05:53:39.334Z,14.27
2019-05-19T05:54:39.273Z,14.29
2019-05-19T05:55:39.261Z,14.28
2019-05-19T05:56:39.250Z,14.21
2019-05-19T05:57:39.258Z,14.37
2019-05-19T05:58:39.230Z,14.25
2019-05-19T05:59:39.212Z,14.35
2019-05-19T06:00:39.202Z,14.37
2019-05-19T06:01:39.195Z,14.39
2019-05-19T06:02:39.184Z,14.38
2019-05-19T06:03:39.185Z,14.38
2019-05-19T06:04:39.158Z,14.43
2019-05-19T06:05:39.149Z,14.42
2019-05-19T06:06:39.133Z,14.50
2019-05-19T06:07:39.123Z,14.61
2019-05-19T06:08:39.128Z,14.64
2019-05-19T06:09:39.098Z,14.67
2019-05-19T06:10:39.087Z,14.78
2019-05-19T06:11:39.093Z,14.78
2019-05-19T06:12:39.062Z,14.95
2019-05-19T06:13:39.078Z,14.93
2019-05-19T06:14:39.044Z,15.06
2019-05-19T06:15:39.029Z,15.06
2019-05-19T06:16:39.016Z,15.09
2019-05-19T06:17:39.004Z,15.17
2019-05-19T06:18:39.014Z,15.31
2019-05-19T06:19:38.981Z,15.36
2019-05-19T06:20:38.992Z,15.36
2019-05-19T06:21:38.959Z,15.43
2019-05-19T06:22:54.606Z,15.41
2019-05-19T06:23:39.954Z,15.48
2019-05-19T06:24:38.924Z,15.54
2019-05-19T06:25:38.912Z,15.60
2019-05-19T06:26:38.903Z,15.74
2019-05-19T06:27:38.888Z,15.78
2019-05-19T06:28:38.894Z,15.81
2019-05-19T06:29:38.865Z,15.88
2019-05-19T06:30:38.854Z,16.03
2019-05-19T06:31:38.841Z,16.12
2019-05-19T06:32:38.831Z,16.23
2019-05-19T06:33:38.820Z,16.42
2019-05-19T06:34:38.826Z,16.55
2019-05-19T06:35:38.805Z,16.67
2019-05-19T06:36:38.784Z,16.78
2019-05-19T06:37:38.773Z,16.99
2019-05-19T06:38:38.773Z,17.03
2019-05-19T06:39:38.766Z,17.25
2019-05-19T06:40:38.745Z,17.26
2019-05-19T06:41:38.726Z,17.28
2019-05-19T06:42:38.715Z,17.44
2019-05-19T06:43:38.703Z,17.47
2019-05-19T06:44:38.695Z,17.55
2019-05-19T06:45:38.705Z,17.59
2019-05-19T06:46:38.669Z,17.94
2019-05-19T06:47:38.658Z,18.10
2019-05-19T06:48:38.670Z,18.22
2019-05-19T06:49:38.636Z,18.24
2019-05-19T06:50:40.815Z,18.46
2019-05-19T06:51:38.629Z,18.74
2019-05-19T06:52:38.597Z,18.94
2019-05-19T06:53:38.594Z,19.18
2019-05-19T06:54:38.582Z,19.20
2019-05-19T06:55:38.563Z,19.31
2019-05-19T06:56:38.574Z,19.47
2019-05-19T06:57:38.544Z,19.75
2019-05-19T06:58:38.530Z,20.00
2019-05-19T06:59:38.518Z,20.12
2019-05-19T07:00:38.507Z,20.38
2019-05-19T07:01:38.549Z,20.35
2019-05-19T07:02:38.486Z,20.20
2019-05-19T07:03:38.473Z,20.16
2019-05-19T07:04:38.463Z,20.16
2019-05-19T07:05:38.452Z,20.23
2019-05-19T07:06:38.465Z,20.23
2019-05-19T07:07:38.445Z,20.16
2019-05-19T07:08:38.415Z,20.27
2019-05-19T07:09:38.405Z,20.30
2019-05-19T07:10:38.394Z,20.54
2019-05-19T07:11:38.384Z,20.77
2019-05-19T07:12:38.387Z,21.16
2019-05-19T07:13:38.360Z,21.61
2019-05-19T07:14:38.354Z,21.98
2019-05-19T07:15:38.644Z,22.74
2019-05-19T07:16:45.361Z,23.60
2019-05-19T07:17:38.331Z,24.32
2019-05-19T07:18:38.308Z,24.91
2019-05-19T07:19:38.291Z,25.30
2019-05-19T07:20:38.279Z,25.61
2019-05-19T07:21:38.268Z,25.91
2019-05-19T07:22:38.277Z,26.27
2019-05-19T07:23:38.243Z,26.61
2019-05-19T07:24:38.236Z,27.09
2019-05-19T07:25:38.227Z,27.64
2019-05-19T07:26:38.212Z,27.99
2019-05-19T07:27:38.228Z,28.40
2019-05-19T07:28:38.190Z,28.73
2019-05-19T07:29:38.179Z,28.91
2019-05-19T07:30:38.189Z,29.18
2019-05-19T07:31:38.189Z,29.22
2019-05-19T07:32:38.147Z,29.47
2019-05-19T07:33:38.154Z,29.94
2019-05-19T07:34:38.124Z,30.68
2019-05-19T07:35:38.114Z,31.43
2019-05-19T07:36:38.100Z,31.42
2019-05-19T07:37:38.099Z,31.33
2019-05-19T07:38:38.101Z,31.87
2019-05-19T07:39:38.067Z,32.07
2019-05-19T07:40:38.060Z,31.57
2019-05-19T07:41:38.048Z,31.13
2019-05-19T07:42:38.036Z,30.46
2019-05-19T07:43:38.048Z,29.96
2019-05-19T07:44:38.014Z,29.38
2019-05-19T07:45:38.008Z,29.06
2019-05-19T07:46:37.994Z,28.77
2019-05-19T07:47:37.987Z,28.47
2019-05-19T07:48:38.013Z,28.32
2019-05-19T07:49:37.960Z,28.22
2019-05-19T07:50:38.311Z,27.82
2019-05-19T07:51:37.956Z,27.79
2019-05-19T07:52:37.957Z,27.31
2019-05-19T07:53:43.145Z,26.62
2019-05-19T07:54:38.921Z,26.58
2019-05-19T07:55:37.893Z,26.17
2019-05-19T07:56:37.890Z,26.27
2019-05-19T07:57:37.876Z,26.47
2019-05-19T07:58:37.860Z,26.81
2019-05-19T07:59:37.869Z,26.40
2019-05-19T08:00:37.838Z,26.27
2019-05-19T08:01:37.833Z,26.21
2019-05-19T08:02:37.820Z,25.80
2019-05-19T08:03:37.848Z,25.82
2019-05-19T08:04:37.794Z,26.31
2019-05-19T08:05:37.806Z,26.92
2019-05-19T08:06:37.772Z,27.42
2019-05-19T08:07:38.078Z,27.89
2019-05-19T08:08:37.750Z,28.28
2019-05-19T08:09:37.740Z,28.53
2019-05-19T08:10:37.751Z,29.04
2019-05-19T08:11:37.715Z,29.37
2019-05-19T08:12:37.705Z,29.82
2019-05-19T08:13:37.698Z,30.47
2019-05-19T08:14:37.686Z,31.05
2019-05-19T08:15:37.695Z,31.45
2019-05-19T08:16:37.667Z,31.79
2019-05-19T08:17:37.668Z,31.96
2019-05-19T08:18:37.640Z,31.87
2019-05-19T08:19:37.635Z,31.67
2019-05-19T08:20:37.638Z,31.77
2019-05-19T08:21:37.614Z,31.55
2019-05-19T08:22:37.599Z,31.77
2019-05-19T08:23:37.592Z,32.14
2019-05-19T08:24:37.575Z,32.30
2019-05-19T08:25:37.598Z,32.52
2019-05-19T08:26:37.554Z,32.67
2019-05-19T08:27:37.547Z,32.92
2019-05-19T08:28:37.534Z,32.69
2019-05-19T08:29:37.528Z,32.80
2019-05-19T08:30:37.513Z,32.86
2019-05-19T08:31:37.526Z,33.42
2019-05-19T08:32:37.494Z,33.87
2019-05-19T08:33:37.503Z,34.31
2019-05-19T08:34:37.474Z,34.79
2019-05-19T08:35:37.465Z,35.21
2019-05-19T08:36:37.468Z,35.55
2019-05-19T08:37:37.445Z,35.63
2019-05-19T08:38:37.433Z,35.02
2019-05-19T08:39:37.428Z,34.70
2019-05-19T08:40:37.417Z,35.13
2019-05-19T08:41:37.423Z,35.29
2019-05-19T08:42:37.392Z,35.48
2019-05-19T08:43:37.383Z,35.89
2019-05-19T08:44:37.380Z,36.29
2019-05-19T08:45:37.369Z,36.73
2019-05-19T08:46:37.350Z,36.98
2019-05-19T08:47:37.360Z,37.26
2019-05-19T08:48:37.331Z,37.21
2019-05-19T08:49:37.329Z,36.94
2019-05-19T08:50:37.312Z,36.95
2019-05-19T08:51:37.302Z,37.20
2019-05-19T08:52:37.315Z,37.36
2019-05-19T08:53:37.377Z,37.41
2019-05-19T08:54:37.274Z,37.86
2019-05-19T08:55:37.264Z,37.98
2019-05-19T08:56:37.253Z,38.17
2019-05-19T08:57:37.264Z,38.03
2019-05-19T08:58:37.235Z,38.14
2019-05-19T08:59:37.231Z,37.95
2019-05-19T09:00:38.549Z,37.39
2019-05-19T09:01:37.206Z,37.58
2019-05-19T09:02:37.217Z,37.68
2019-05-19T09:03:37.218Z,37.56
2019-05-19T09:04:37.178Z,36.77
2019-05-19T09:05:37.192Z,36.14
2019-05-19T09:06:37.158Z,36.36
2019-05-19T09:07:37.149Z,36.11
2019-05-19T09:08:37.158Z,35.55
2019-05-19T09:09:37.133Z,35.72
2019-05-19T09:10:37.122Z,36.30
2019-05-19T09:11:37.112Z,36.43
2019-05-19T09:12:37.103Z,36.63
2019-05-19T09:13:37.112Z,36.41
2019-05-19T09:14:37.130Z,36.03
2019-05-19T09:15:37.073Z,36.30
2019-05-19T09:16:37.066Z,36.65
2019-05-19T09:17:37.052Z,37.17
2019-05-19T09:18:37.064Z,37.38
2019-05-19T09:19:37.034Z,37.76
2019-05-19T09:20:37.024Z,37.64
2019-05-19T09:21:37.014Z,38.01
2019-05-19T09:22:37.005Z,38.23
2019-05-19T09:23:37.016Z,38.46
2019-05-19T09:24:37.445Z,38.60
2019-05-19T09:25:36.974Z,38.60
2019-05-19T09:26:36.969Z,38.36
2019-05-19T09:27:36.962Z,37.80
2019-05-19T09:28:36.948Z,38.20
2019-05-19T09:29:36.959Z,37.99
2019-05-19T09:30:36.934Z,37.46
2019-05-19T09:31:36.923Z,37.61
2019-05-19T09:32:36.914Z,38.01
2019-05-19T09:33:36.907Z,38.44
2019-05-19T09:34:36.929Z,38.46
2019-05-19T09:35:36.897Z,38.38
2019-05-19T09:36:36.875Z,38.14
2019-05-19T09:37:36.869Z,38.42
2019-05-19T09:38:36.870Z,38.39
2019-05-19T09:39:36.888Z,37.96
2019-05-19T09:40:36.893Z,37.48
2019-05-19T09:41:36.833Z,37.16
2019-05-19T09:42:36.831Z,37.04
2019-05-19T09:43:36.808Z,36.68
2019-05-19T09:44:36.799Z,36.63
2019-05-19T09:45:36.811Z,36.64
2019-05-19T09:46:36.779Z,36.08
2019-05-19T09:47:37.221Z,35.92
2019-05-19T09:48:36.763Z,35.89
2019-05-19T09:49:36.753Z,35.23
2019-05-19T09:50:36.759Z,34.88
2019-05-19T09:51:36.729Z,34.54
2019-05-19T09:52:36.723Z,34.13
2019-05-19T09:53:36.710Z,33.79
2019-05-19T09:54:44.929Z,33.41
2019-05-19T09:55:37.704Z,32.79
2019-05-19T09:56:36.679Z,32.88
2019-05-19T09:57:36.670Z,32.52
2019-05-19T09:58:36.656Z,32.29
2019-05-19T09:59:36.652Z,32.25
2019-05-19T10:00:36.655Z,32.48
2019-05-19T10:01:36.626Z,32.32
2019-05-19T10:02:36.618Z,32.55
2019-05-19T10:03:36.607Z,32.84
2019-05-19T10:04:36.594Z,33.45
2019-05-19T10:05:36.606Z,34.19
2019-05-19T10:06:36.598Z,34.84
2019-05-19T10:07:36.572Z,35.07
2019-05-19T10:08:36.553Z,35.15
2019-05-19T10:09:36.546Z,34.99
2019-05-19T10:10:36.555Z,34.76
2019-05-19T10:11:36.576Z,34.45
2019-05-19T10:12:36.534Z,33.85
2019-05-19T10:13:37.824Z,33.80
2019-05-19T10:14:36.491Z,34.17
2019-05-19T10:15:36.501Z,34.51
2019-05-19T10:16:36.470Z,34.72
2019-05-19T10:17:36.467Z,34.11
2019-05-19T10:18:36.455Z,33.85
2019-05-19T10:19:36.443Z,33.85
2019-05-19T10:20:36.453Z,34.14
2019-05-19T10:21:36.423Z,34.31
2019-05-19T10:22:36.410Z,34.17
2019-05-19T10:23:36.405Z,34.24
2019-05-19T10:24:36.392Z,34.66
2019-05-19T10:25:36.407Z,35.55
2019-05-19T10:26:36.371Z,36.29
2019-05-19T10:27:36.364Z,36.94
2019-05-19T10:28:36.352Z,37.59
2019-05-19T10:29:36.345Z,38.10
2019-05-19T10:30:36.333Z,38.57
2019-05-19T10:31:36.341Z,38.89
2019-05-19T10:32:36.321Z,38.99
2019-05-19T10:33:36.306Z,38.90
2019-05-19T10:34:36.305Z,38.46
2019-05-19T10:35:36.285Z,38.38
2019-05-19T10:36:36.302Z,38.42
2019-05-19T10:37:36.268Z,38.48
2019-05-19T10:38:36.257Z,38.60
2019-05-19T10:39:36.319Z,38.41
2019-05-19T10:40:36.239Z,38.52
2019-05-19T10:41:36.255Z,38.70
2019-05-19T10:42:36.219Z,38.48
2019-05-19T10:43:36.216Z,38.10
2019-05-19T10:44:36.201Z,37.32
2019-05-19T10:45:36.187Z,37.05
2019-05-19T10:46:36.202Z,37.14
2019-05-19T10:47:36.189Z,36.75
2019-05-19T10:48:36.167Z,36.48
2019-05-19T10:49:36.180Z,36.12
2019-05-19T10:50:36.138Z,36.17
2019-05-19T10:51:36.130Z,35.84
2019-05-19T10:52:36.149Z,35.85
2019-05-19T10:53:36.110Z,35.79
2019-05-19T10:54:36.100Z,35.52
2019-05-19T10:55:37.108Z,35.35
2019-05-19T10:56:36.084Z,35.20
2019-05-19T10:57:36.069Z,35.36
2019-05-19T10:58:36.077Z,35.25
2019-05-19T10:59:36.062Z,35.25
2019-05-19T11:00:36.038Z,35.06
2019-05-19T11:01:36.030Z,35.07
2019-05-19T11:02:36.028Z,34.99
2019-05-19T11:03:36.027Z,34.81
2019-05-19T11:04:36.011Z,34.58
2019-05-19T11:05:35.985Z,34.14
2019-05-19T11:06:35.978Z,33.79
2019-05-19T11:07:35.965Z,33.65
2019-05-19T11:08:35.979Z,33.86
2019-05-19T11:09:35.946Z,33.98
2019-05-19T11:10:35.945Z,33.90
2019-05-19T11:11:35.936Z,33.63
2019-05-19T11:12:35.915Z,33.83
2019-05-19T11:13:35.906Z,33.79
2019-05-19T11:14:35.961Z,33.92
2019-05-19T11:15:35.883Z,33.67
2019-05-19T11:16:35.873Z,33.42
2019-05-19T11:17:35.860Z,33.65
2019-05-19T11:18:35.852Z,34.00
2019-05-19T11:19:35.862Z,34.39
2019-05-19T11:20:35.952Z,35.18
2019-05-19T11:21:35.820Z,35.40
2019-05-19T11:22:35.810Z,35.30
2019-05-19T11:23:35.801Z,35.54
2019-05-19T11:24:35.807Z,35.91
2019-05-19T11:25:50.408Z,36.49
2019-05-19T11:26:36.769Z,36.61
2019-05-19T11:27:35.780Z,37.04
2019-05-19T11:28:35.753Z,37.32
2019-05-19T11:29:35.759Z,37.67
2019-05-19T11:30:35.733Z,37.55
2019-05-19T11:31:35.721Z,37.32
2019-05-19T11:32:35.715Z,37.46
2019-05-19T11:33:35.701Z,37.70
2019-05-19T11:34:35.707Z,37.76
2019-05-19T11:35:35.681Z,37.74
2019-05-19T11:36:35.672Z,37.68
2019-05-19T11:37:35.664Z,37.88
2019-05-19T11:38:35.660Z,37.68
2019-05-19T11:39:35.667Z,37.35
2019-05-19T11:40:35.658Z,37.29
2019-05-19T11:41:35.622Z,37.56
2019-05-19T11:42:35.660Z,37.62
2019-05-19T11:43:35.609Z,36.79
2019-05-19T11:44:35.606Z,36.60
2019-05-19T11:45:35.612Z,36.68
2019-05-19T11:46:35.580Z,36.87
2019-05-19T11:47:35.565Z,37.02
2019-05-19T11:48:35.553Z,36.76
2019-05-19T11:49:35.547Z,36.79
2019-05-19T11:50:35.562Z,36.72
2019-05-19T11:51:35.530Z,36.64
2019-05-19T11:52:35.517Z,36.70
2019-05-19T11:53:35.507Z,36.94
2019-05-19T11:54:35.497Z,36.92
2019-05-19T11:55:35.508Z,36.60
2019-05-19T11:56:35.479Z,35.70
2019-05-19T11:57:35.473Z,35.95
2019-05-19T11:58:35.457Z,36.06
2019-05-19T11:59:35.445Z,35.47
2019-05-19T12:00:35.458Z,35.37
2019-05-19T12:01:35.428Z,34.86
2019-05-19T12:02:35.417Z,34.23
2019-05-19T12:03:35.462Z,33.68
2019-05-19T12:04:35.403Z,33.78
2019-05-19T12:05:35.474Z,33.97
2019-05-19T12:06:39.479Z,33.94
2019-05-19T12:07:35.379Z,34.17
2019-05-19T12:08:35.356Z,34.17
2019-05-19T12:09:35.400Z,34.79
2019-05-19T12:10:35.355Z,35.64
2019-05-19T12:11:35.328Z,35.82
2019-05-19T12:12:35.333Z,35.82
2019-05-19T12:13:35.364Z,35.91
2019-05-19T12:14:35.297Z,35.42
2019-05-19T12:15:35.284Z,34.91
2019-05-19T12:16:35.299Z,34.29
2019-05-19T12:17:35.265Z,33.26
2019-05-19T12:18:35.254Z,32.29
2019-05-19T12:19:35.240Z,32.11
2019-05-19T12:20:35.237Z,32.05
2019-05-19T12:21:35.238Z,31.92
2019-05-19T12:22:35.209Z,31.42
2019-05-19T12:23:35.198Z,31.15
2019-05-19T12:24:35.194Z,30.89
2019-05-19T12:25:35.184Z,30.56
2019-05-19T12:26:35.195Z,30.24
2019-05-19T12:27:35.157Z,29.68
2019-05-19T12:28:35.153Z,29.44
2019-05-19T12:29:35.138Z,28.88
2019-05-19T12:30:35.127Z,28.40
2019-05-19T12:31:35.135Z,28.19
2019-05-19T12:32:35.116Z,28.09
2019-05-19T12:33:35.096Z,28.09
2019-05-19T12:34:35.081Z,27.95
2019-05-19T12:35:35.071Z,27.80
2019-05-19T12:36:35.071Z,27.76
2019-05-19T12:37:35.067Z,27.70
2019-05-19T12:38:35.050Z,27.58
2019-05-19T12:39:35.027Z,27.47
2019-05-19T12:40:35.021Z,27.38
2019-05-19T12:41:35.007Z,27.14
2019-05-19T12:42:35.021Z,27.05
2019-05-19T12:43:34.982Z,26.98
2019-05-19T12:44:34.979Z,26.59
2019-05-19T12:45:34.961Z,26.31
2019-05-19T12:46:34.947Z,26.21
2019-05-19T12:47:34.948Z,25.90
2019-05-19T12:48:34.943Z,25.59
2019-05-19T12:49:34.917Z,25.43
2019-05-19T12:50:34.910Z,25.19
2019-05-19T12:51:34.896Z,24.91
2019-05-19T12:52:34.883Z,24.88